Time;durP1;ratioP1;P1;durP2;ratioP2;P2;SDS_P1;SDS_P2;PMS_P1;PMS_P2;Temp;Humidity;BMP_temperature;BMP_pressure;BME280_temperature;BME280_humidity;BME280_pressure;Samples;Min_cycle;Max_cycle;Signal;HPM_P1;HPM_P2
2020/12/28 00:01:58;;;;;;;20.77;14.20;;;4.60;99.90;;;;;;5057608;28;20027;-93
2020/12/28 00:04:26;;;;;;;17.48;13.43;;;4.60;99.90;;;;;;5057188;28;20023;-93
2020/12/28 00:06:51;;;;;;;23.38;15.38;;;4.60;99.90;;;;;;5057326;28;20024;-92
2020/12/28 00:09:17;;;;;;;19.40;14.45;;;4.60;99.90;;;;;;5057569;28;20123;-93
2020/12/28 00:11:42;;;;;;;19.67;14.77;;;4.60;99.90;;;;;;5059770;28;20025;-93
2020/12/28 00:14:08;;;;;;;22.15;16.05;;;4.70;99.90;;;;;;5057658;28;20020;-92
2020/12/28 00:16:33;;;;;;;19.00;14.32;;;4.60;99.90;;;;;;5063325;28;20048;-93
2020/12/28 00:18:59;;;;;;;18.35;14.57;;;4.70;99.90;;;;;;5082083;28;20013;-91
2020/12/28 00:21:25;;;;;;;21.08;15.40;;;4.70;99.90;;;;;;5081347;28;20028;-92
2020/12/28 00:23:50;;;;;;;24.77;14.27;;;4.70;99.90;;;;;;5081828;28;20052;-93
2020/12/28 00:26:16;;;;;;;18.38;13.98;;;4.70;99.90;;;;;;5099322;28;20009;-93
2020/12/28 00:28:42;;;;;;;16.35;12.27;;;4.80;99.90;;;;;;5068841;28;20039;-93
2020/12/28 00:31:08;;;;;;;15.80;13.52;;;4.80;99.90;;;;;;5057146;28;20055;-92
2020/12/28 00:33:34;;;;;;;17.02;13.18;;;4.80;99.90;;;;;;5056807;28;20047;-92
2020/12/28 00:36:00;;;;;;;17.23;12.85;;;4.80;99.90;;;;;;5074442;28;20484;-92
2020/12/28 00:38:25;;;;;;;14.23;12.45;;;4.80;99.90;;;;;;5056945;28;20021;-93
2020/12/28 00:40:51;;;;;;;13.80;11.77;;;4.70;99.90;;;;;;5056432;28;20017;-93
2020/12/28 00:43:16;;;;;;;14.40;11.55;;;4.70;99.90;;;;;;5056745;28;20040;-93
2020/12/28 00:45:42;;;;;;;14.50;11.43;;;4.70;99.90;;;;;;5056474;28;20070;-92
2020/12/28 00:48:07;;;;;;;14.63;11.82;;;4.70;99.90;;;;;;5056739;28;20488;-92
2020/12/28 00:50:33;;;;;;;15.02;11.43;;;4.70;99.90;;;;;;5056327;28;20087;-92
2020/12/28 00:52:58;;;;;;;14.25;11.70;;;4.70;99.90;;;;;;5056472;28;20437;-93
2020/12/28 00:55:24;;;;;;;14.70;11.43;;;4.60;99.90;;;;;;5056314;28;20505;-93
2020/12/28 00:57:49;;;;;;;17.17;11.70;;;4.60;99.90;;;;;;5073995;28;20028;-92
2020/12/28 01:00:15;;;;;;;14.40;11.20;;;4.60;99.90;;;;;;5056457;28;20024;-92
2020/12/28 01:02:40;;;;;;;13.13;10.25;;;4.60;99.90;;;;;;5056436;28;20070;-91
2020/12/28 01:05:06;;;;;;;14.75;10.48;;;4.60;99.90;;;;;;5061184;28;20364;-91
2020/12/28 01:07:31;;;;;;;18.30;10.43;;;4.50;99.90;;;;;;5076406;28;20111;-95
2020/12/28 01:09:57;;;;;;;11.75;9.65;;;4.60;99.90;;;;;;5076334;28;20056;-92
2020/12/28 01:12:22;;;;;;;12.82;9.05;;;4.50;99.90;;;;;;5076306;28;20056;-93
2020/12/28 01:14:48;;;;;;;11.45;9.32;;;4.50;99.90;;;;;;5076470;28;20475;-92
2020/12/28 01:17:13;;;;;;;11.23;8.88;;;4.50;99.90;;;;;;5076119;28;20024;-93
2020/12/28 01:19:39;;;;;;;9.20;7.70;;;4.50;99.90;;;;;;5076187;28;20119;-93
2020/12/28 01:22:05;;;;;;;9.68;8.00;;;4.60;99.90;;;;;;5076306;28;20027;-92
2020/12/28 01:24:30;;;;;;;12.02;8.52;;;4.60;99.90;;;;;;5076375;28;20024;-93
2020/12/28 01:26:56;;;;;;;11.00;8.15;;;4.60;99.90;;;;;;5076213;28;20067;-94
2020/12/28 01:29:21;;;;;;;13.98;8.93;;;4.60;99.90;;;;;;5076222;28;20028;-93
2020/12/28 01:31:47;;;;;;;10.32;7.38;;;4.60;99.90;;;;;;5075944;28;20119;-93
2020/12/28 01:34:12;;;;;;;9.52;7.68;;;4.60;99.90;;;;;;5076035;28;20494;-92
2020/12/28 01:36:38;;;;;;;8.93;7.57;;;4.60;99.90;;;;;;5076020;28;20028;-92
2020/12/28 01:39:04;;;;;;;7.68;6.57;;;4.60;99.90;;;;;;5076206;28;20476;-93
2020/12/28 01:41:29;;;;;;;10.00;7.15;;;4.60;99.90;;;;;;5075906;28;20376;-93
2020/12/28 01:43:55;;;;;;;7.97;6.45;;;4.60;99.90;;;;;;5075971;28;20030;-92
2020/12/28 01:46:23;;;;;;;10.52;7.32;;;4.60;99.90;;;;;;5093824;28;20031;-93
2020/12/28 01:48:48;;;;;;;7.90;5.93;;;4.60;99.90;;;;;;5075972;28;20032;-92
2020/12/28 01:51:14;;;;;;;9.82;7.00;;;4.60;99.90;;;;;;5079004;28;20058;-93
2020/12/28 01:53:40;;;;;;;8.55;6.60;;;4.60;99.90;;;;;;5079901;28;20028;-93
2020/12/28 01:56:06;;;;;;;8.77;6.93;;;4.60;99.90;;;;;;5079651;28;20111;-92
2020/12/28 01:58:32;;;;;;;8.80;6.93;;;4.60;99.90;;;;;;5079950;28;20024;-92
2020/12/28 02:00:58;;;;;;;8.05;6.95;;;4.60;99.90;;;;;;5079831;28;20024;-94
2020/12/28 02:03:25;;;;;;;9.80;7.68;;;4.60;99.90;;;;;;5079722;28;20056;-93
2020/12/28 02:05:52;;;;;;;10.38;8.00;;;4.60;99.90;;;;;;5086095;28;20558;-93
2020/12/28 02:08:17;;;;;;;10.95;8.35;;;4.60;99.90;;;;;;5059463;28;20077;-92
2020/12/28 02:10:43;;;;;;;12.73;9.48;;;4.60;99.90;;;;;;5059502;28;20032;-92
2020/12/28 02:13:09;;;;;;;13.02;9.63;;;4.60;99.90;;;;;;5059474;28;20035;-93
2020/12/28 02:15:34;;;;;;;12.60;9.52;;;4.60;99.90;;;;;;5059553;28;20025;-91
2020/12/28 02:18:00;;;;;;;13.05;9.45;;;4.60;99.90;;;;;;5059175;28;20028;-93
2020/12/28 02:20:25;;;;;;;13.23;9.60;;;4.60;99.90;;;;;;5059438;28;20021;-92
2020/12/28 02:22:51;;;;;;;15.38;10.68;;;4.60;99.90;;;;;;5059274;28;20502;-93
2020/12/28 02:25:17;;;;;;;14.32;10.65;;;4.60;99.90;;;;;;5077142;28;20029;-93
2020/12/28 02:27:42;;;;;;;15.25;11.05;;;4.60;99.90;;;;;;5059094;28;20537;-92
2020/12/28 02:30:08;;;;;;;15.35;11.45;;;4.60;99.90;;;;;;5059209;28;20502;-92
2020/12/28 02:32:33;;;;;;;22.63;13.93;;;4.60;99.90;;;;;;5059473;28;20021;-91
2020/12/28 02:34:59;;;;;;;21.15;13.68;;;4.60;99.90;;;;;;5059607;28;20024;-91
2020/12/28 02:37:24;;;;;;;22.85;13.80;;;4.60;99.90;;;;;;5077229;28;20025;-90
2020/12/28 02:39:50;;;;;;;16.42;11.00;;;4.60;99.90;;;;;;5060477;28;20555;-92
2020/12/28 02:42:16;;;;;;;20.95;10.60;;;4.60;99.90;;;;;;5059101;28;20380;-92
2020/12/28 02:44:41;;;;;;;13.80;9.35;;;4.60;99.90;;;;;;5059297;28;20557;-93
2020/12/28 02:47:07;;;;;;;14.63;10.75;;;4.60;99.90;;;;;;5058717;28;20020;-92
2020/12/28 02:49:33;;;;;;;17.10;11.00;;;4.60;99.90;;;;;;5059601;28;20159;-92
2020/12/28 02:51:58;;;;;;;15.20;10.32;;;4.60;99.90;;;;;;5059398;28;20087;-93
2020/12/28 02:54:24;;;;;;;18.23;12.15;;;4.60;99.90;;;;;;5059710;28;20024;-92
2020/12/28 02:56:49;;;;;;;15.75;10.48;;;4.70;99.90;;;;;;5077283;28;20033;-92
2020/12/28 02:59:15;;;;;;;18.63;11.55;;;4.70;99.90;;;;;;5059164;28;20104;-93
2020/12/28 03:01:40;;;;;;;16.27;10.25;;;4.70;99.90;;;;;;5057797;28;20028;-93
2020/12/28 03:04:06;;;;;;;15.48;9.23;;;4.70;99.90;;;;;;5058747;28;20028;-92
2020/12/28 03:06:32;;;;;;;17.60;11.65;;;4.70;99.90;;;;;;5075229;28;20074;-93
2020/12/28 03:08:58;;;;;;;16.38;11.23;;;4.70;99.90;;;;;;5078655;28;20084;-92
2020/12/28 03:11:23;;;;;;;19.13;10.73;;;4.70;99.90;;;;;;5078450;28;20051;-93
2020/12/28 03:13:49;;;;;;;17.50;11.95;;;4.60;99.90;;;;;;5078400;28;20476;-92
2020/12/28 03:16:15;;;;;;;19.23;12.18;;;4.60;99.90;;;;;;5078312;28;20024;-93
2020/12/28 03:18:41;;;;;;;19.30;12.85;;;4.60;99.90;;;;;;5078132;28;20050;-93
2020/12/28 03:21:07;;;;;;;18.50;12.68;;;4.60;99.90;;;;;;5078550;28;20020;-93
2020/12/28 03:23:32;;;;;;;17.83;11.57;;;4.60;99.90;;;;;;5078161;28;20089;-93
2020/12/28 03:25:58;;;;;;;17.63;12.05;;;4.60;99.90;;;;;;5096343;28;20430;-92
2020/12/28 03:28:23;;;;;;;17.67;12.63;;;4.60;99.90;;;;;;5078008;28;20620;-92
2020/12/28 03:30:49;;;;;;;19.00;12.77;;;4.60;99.90;;;;;;5078018;28;20028;-92
2020/12/28 03:33:15;;;;;;;15.82;11.60;;;4.50;99.90;;;;;;5077885;28;20028;-92
2020/12/28 03:35:41;;;;;;;15.25;11.27;;;4.40;99.90;;;;;;5077734;28;20471;-93
2020/12/28 03:38:07;;;;;;;18.75;12.00;;;4.40;99.90;;;;;;5078100;28;20028;-93
2020/12/28 03:40:32;;;;;;;19.77;12.88;;;4.30;99.90;;;;;;5077934;28;20027;-92
2020/12/28 03:42:58;;;;;;;21.63;12.85;;;4.30;99.90;;;;;;5077732;28;20027;-93
2020/12/28 03:45:25;;;;;;;19.67;12.27;;;4.30;99.90;;;;;;5077767;28;20089;-92
2020/12/28 03:47:50;;;;;;;18.60;12.40;;;4.40;99.90;;;;;;5095745;28;20103;-93
2020/12/28 03:50:16;;;;;;;17.35;12.68;;;4.40;99.90;;;;;;5077876;28;20086;-92
2020/12/28 03:52:41;;;;;;;17.83;11.85;;;4.30;99.90;;;;;;5077625;28;20024;-93
2020/12/28 03:55:07;;;;;;;23.50;12.73;;;4.30;99.90;;;;;;5077576;28;20024;-93
2020/12/28 03:57:33;;;;;;;15.68;9.57;;;4.20;99.90;;;;;;5077321;28;20028;-93
2020/12/28 03:59:59;;;;;;;18.55;9.98;;;4.20;99.90;;;;;;5077205;28;20028;-92
2020/12/28 04:02:24;;;;;;;14.02;9.90;;;4.10;99.90;;;;;;5077595;28;20044;-91
2020/12/28 04:04:50;;;;;;;14.48;10.65;;;4.10;99.90;;;;;;5074683;28;20033;-93
2020/12/28 04:07:16;;;;;;;20.88;10.18;;;4.00;99.90;;;;;;5074812;28;20107;-91
2020/12/28 04:09:41;;;;;;;17.13;10.25;;;4.00;99.90;;;;;;5057367;28;20031;-93
2020/12/28 04:12:07;;;;;;;15.10;9.65;;;3.90;99.90;;;;;;5057190;28;20119;-91
2020/12/28 04:14:32;;;;;;;14.82;8.88;;;3.90;99.90;;;;;;5056878;28;20025;-92
2020/12/28 04:16:58;;;;;;;16.55;8.27;;;3.90;99.90;;;;;;5074847;28;20043;-92
2020/12/28 04:19:23;;;;;;;15.43;8.85;;;3.90;99.90;;;;;;5057103;28;20016;-93
2020/12/28 04:21:49;;;;;;;15.57;8.85;;;3.90;99.90;;;;;;5074867;28;20388;-92
2020/12/28 04:24:15;;;;;;;14.35;8.73;;;3.90;99.90;;;;;;5056901;28;20506;-93
2020/12/28 04:26:45;;;;;;;13.95;8.18;;;3.90;99.90;;;;;;5057054;28;20031;-92
2020/12/28 04:29:14;;;;;;;13.05;7.20;;;3.90;99.90;;;;;;5056744;28;20024;-92
2020/12/28 04:31:41;;;;;;;14.00;8.37;;;3.90;99.90;;;;;;5057167;28;20548;-93
2020/12/28 04:34:07;;;;;;;18.35;8.35;;;3.80;99.90;;;;;;5056846;28;20077;-92
2020/12/28 04:36:33;;;;;;;19.15;9.13;;;3.90;99.90;;;;;;5056805;28;20024;-92
2020/12/28 04:38:59;;;;;;;19.52;10.73;;;3.90;99.90;;;;;;5056987;28;20031;-92
2020/12/28 04:41:28;;;;;;;18.98;8.65;;;4.00;99.90;;;;;;5074879;28;20016;-92
2020/12/28 04:43:53;;;;;;;15.18;8.70;;;4.00;99.90;;;;;;5058173;28;20027;-92
2020/12/28 04:46:20;;;;;;;22.55;9.77;;;4.00;99.90;;;;;;5056920;28;20016;-93
2020/12/28 04:48:47;;;;;;;18.30;10.05;;;4.00;99.90;;;;;;5057909;28;20021;-93
2020/12/28 04:51:13;;;;;;;23.38;9.23;;;4.10;99.90;;;;;;5076157;28;20046;-91
2020/12/28 04:53:41;;;;;;;15.75;8.80;;;4.10;99.90;;;;;;5056522;28;20111;-93
2020/12/28 04:56:06;;;;;;;20.35;9.75;;;4.20;99.90;;;;;;5056422;28;20020;-92
2020/12/28 04:58:32;;;;;;;14.45;8.73;;;4.20;99.90;;;;;;5056539;28;20033;-93
2020/12/28 05:01:01;;;;;;;20.13;9.75;;;4.20;99.90;;;;;;5055810;28;20024;-92
2020/12/28 05:03:27;;;;;;;13.52;8.25;;;4.10;99.90;;;;;;5056530;28;20070;-92
2020/12/28 05:05:53;;;;;;;13.65;9.15;;;4.10;99.90;;;;;;5055840;28;20115;-92
2020/12/28 05:08:20;;;;;;;13.20;7.93;;;4.00;99.90;;;;;;5056335;28;20036;-92
2020/12/28 05:10:46;;;;;;;12.20;7.30;;;3.90;99.90;;;;;;5056245;28;20025;-91
2020/12/28 05:13:13;;;;;;;14.52;8.02;;;3.90;99.90;;;;;;5056240;28;20116;-92
2020/12/28 05:15:50;;;;;;;15.27;8.48;;;3.90;99.90;;;;;;5056452;28;20024;-93
2020/12/28 05:18:19;;;;;;;13.50;8.30;;;3.90;99.90;;;;;;5057445;28;20060;-93
2020/12/28 05:20:46;;;;;;;14.65;8.77;;;3.90;99.90;;;;;;5056425;28;20021;-92
2020/12/28 05:23:13;;;;;;;14.10;7.82;;;4.00;99.90;;;;;;5056945;28;20028;-93
2020/12/28 05:25:43;;;;;;;12.90;7.95;;;4.00;99.90;;;;;;5055655;28;20024;-92
2020/12/28 05:28:10;;;;;;;11.43;7.35;;;4.00;99.90;;;;;;5056864;28;20028;-93
2020/12/28 05:30:35;;;;;;;16.15;8.23;;;4.10;99.90;;;;;;5073780;28;20036;-92
2020/12/28 05:33:04;;;;;;;12.40;8.38;;;4.10;99.90;;;;;;5056249;28;20029;-92
2020/12/28 05:35:31;;;;;;;11.87;7.97;;;4.10;99.90;;;;;;5055986;28;20102;-93
2020/12/28 05:37:59;;;;;;;14.52;8.55;;;4.10;99.90;;;;;;5056050;28;20293;-93
2020/12/28 05:40:25;;;;;;;17.40;9.55;;;4.20;99.90;;;;;;5073877;28;20048;-92
2020/12/28 05:42:53;;;;;;;16.40;9.25;;;4.20;99.90;;;;;;5055895;28;20028;-93
2020/12/28 05:45:19;;;;;;;13.50;8.88;;;4.20;99.90;;;;;;5073611;28;20025;-94
2020/12/28 05:47:50;;;;;;;14.82;8.15;;;4.30;99.90;;;;;;5056018;28;20024;-92
2020/12/28 05:50:20;;;;;;;16.25;10.00;;;4.30;99.90;;;;;;5055487;28;20105;-93
2020/12/28 05:52:48;;;;;;;;;;;4.30;99.90;;;;;;5056632;28;20468;-93
2020/12/28 05:55:17;;;;;;;18.75;9.18;;;4.30;99.90;;;;;;5055876;28;20284;-93
2020/12/28 05:57:45;;;;;;;14.57;8.27;;;4.20;99.90;;;;;;5073489;28;20025;-93
2020/12/28 06:00:10;;;;;;;14.35;8.60;;;4.20;99.90;;;;;;5055784;28;20676;-93
2020/12/28 06:02:39;;;;;;;11.50;7.40;;;4.20;99.90;;;;;;5055652;28;20162;-94
2020/12/28 06:05:07;;;;;;;18.55;10.43;;;4.20;99.90;;;;;;5060552;28;20020;-92
2020/12/28 06:07:33;;;;;;;13.75;9.55;;;4.20;99.90;;;;;;5075701;28;20055;-93
2020/12/28 06:09:59;;;;;;;11.15;7.78;;;4.20;99.90;;;;;;5075382;28;20036;-95
2020/12/28 06:12:24;;;;;;;13.68;8.35;;;4.20;99.90;;;;;;5075913;28;20125;-93
2020/12/28 06:14:50;;;;;;;16.02;9.35;;;4.20;99.90;;;;;;5093558;28;20024;-92
2020/12/28 06:17:16;;;;;;;17.40;10.32;;;4.20;99.90;;;;;;5075839;28;20341;-94
2020/12/28 06:19:42;;;;;;;16.20;9.52;;;4.20;99.90;;;;;;5075573;28;20024;-92
2020/12/28 06:22:21;;;;;;;14.10;9.32;;;4.20;99.90;;;;;;5075855;28;20467;-93
2020/12/28 06:24:57;;;;;;;15.60;9.80;;;4.30;99.90;;;;;;5093117;28;20031;-92
2020/12/28 06:27:34;;;;;;;14.18;8.65;;;4.20;99.90;;;;;;5057585;28;20033;-91
2020/12/28 06:30:11;;;;;;;19.00;10.13;;;4.20;99.90;;;;;;5072712;28;20056;-93
2020/12/28 06:32:38;;;;;;;18.10;10.00;;;4.20;99.90;;;;;;5071620;28;20035;-93
2020/12/28 06:35:09;;;;;;;18.15;8.85;;;4.10;99.90;;;;;;5063013;28;20025;-92
2020/12/28 06:37:48;;;;;;;15.38;10.13;;;4.10;99.90;;;;;;5066338;28;20020;-92
2020/12/28 06:40:29;;;;;;;15.27;9.07;;;4.00;99.90;;;;;;5084271;28;20016;-92
2020/12/28 06:43:05;;;;;;;15.73;8.38;;;4.00;99.90;;;;;;5076244;28;20026;-92
2020/12/28 06:45:31;;;;;;;14.15;8.13;;;3.90;99.90;;;;;;5079010;28;20024;-92
2020/12/28 06:47:56;;;;;;;15.30;8.70;;;3.90;99.90;;;;;;5078966;28;20074;-93
2020/12/28 06:50:22;;;;;;;18.10;8.60;;;3.80;99.90;;;;;;5071834;28;20101;-92
2020/12/28 06:52:51;;;;;;;18.00;9.65;;;3.80;99.90;;;;;;5079671;28;20039;-92
2020/12/28 06:55:17;;;;;;;14.48;8.38;;;3.80;99.90;;;;;;5060098;28;20384;-93
2020/12/28 06:57:42;;;;;;;16.65;10.15;;;3.70;99.90;;;;;;5060338;28;20036;-91
2020/12/28 07:00:18;;;;;;;14.15;8.93;;;3.70;99.90;;;;;;5077824;28;20036;-93
2020/12/28 07:02:49;;;;;;;16.02;9.50;;;3.60;99.90;;;;;;5076482;28;20017;-93
2020/12/28 07:05:21;;;;;;;15.77;9.52;;;3.60;99.90;;;;;;5065054;28;20019;-93
2020/12/28 07:07:47;;;;;;;17.67;9.70;;;3.60;99.90;;;;;;5078725;28;20020;-93
2020/12/28 07:10:18;;;;;;;12.02;8.00;;;3.60;99.90;;;;;;5096718;28;20030;-93
2020/12/28 07:12:44;;;;;;;13.35;8.88;;;3.60;99.90;;;;;;5078289;28;20122;-93
2020/12/28 07:15:10;;;;;;;14.30;8.38;;;3.60;99.90;;;;;;5078304;28;20024;-92
2020/12/28 07:17:36;;;;;;;13.43;7.60;;;3.60;99.90;;;;;;5078269;28;20115;-91
2020/12/28 07:20:08;;;;;;;9.27;7.15;;;3.60;99.90;;;;;;5078389;28;20107;-93
2020/12/28 07:22:35;;;;;;;11.35;6.95;;;3.60;99.90;;;;;;5078270;28;20399;-93
2020/12/28 07:25:01;;;;;;;11.25;6.82;;;3.60;99.90;;;;;;5096212;28;20016;-92
2020/12/28 07:27:27;;;;;;;12.32;7.05;;;3.60;99.90;;;;;;5071197;28;20030;-93
2020/12/28 07:29:53;;;;;;;12.93;6.60;;;3.50;99.90;;;;;;5060893;28;20024;-92
2020/12/28 07:32:19;;;;;;;10.77;6.00;;;3.50;99.90;;;;;;5064384;28;20450;-93
2020/12/28 07:34:51;;;;;;;12.57;6.65;;;3.50;99.90;;;;;;5095806;28;20028;-92
2020/12/28 07:37:18;;;;;;;9.70;6.47;;;3.50;99.90;;;;;;5066702;28;20024;-93
2020/12/28 07:39:46;;;;;;;10.10;6.45;;;3.40;99.90;;;;;;5072423;28;20024;-92
2020/12/28 07:42:16;;;;;;;12.98;7.22;;;3.40;99.90;;;;;;5082453;28;20020;-92
2020/12/28 07:44:42;;;;;;;11.10;7.30;;;3.40;99.90;;;;;;5069822;28;20016;-92
2020/12/28 07:47:13;;;;;;;10.30;6.45;;;3.40;99.90;;;;;;5070174;28;20545;-92
2020/12/28 07:49:43;;;;;;;10.05;6.32;;;3.40;99.90;;;;;;5068267;28;20048;-92
2020/12/28 07:52:24;;;;;;;11.48;6.68;;;3.40;99.90;;;;;;5068830;28;20032;-92
2020/12/28 07:55:05;;;;;;;13.27;6.63;;;3.50;99.90;;;;;;5069354;28;20081;-92
2020/12/28 07:57:43;;;;;;;9.93;6.03;;;3.50;99.90;;;;;;5083176;28;20111;-92
2020/12/28 08:00:15;;;;;;;8.23;5.90;;;3.50;99.90;;;;;;5068190;28;20430;-92
2020/12/28 08:02:49;;;;;;;10.45;6.57;;;3.50;99.90;;;;;;5082444;28;20036;-93
2020/12/28 08:05:19;;;;;;;10.25;6.70;;;3.50;99.90;;;;;;5067963;28;20027;-92
2020/12/28 08:07:44;;;;;;;8.35;6.20;;;3.50;99.90;;;;;;5083072;28;20027;-91
2020/12/28 08:10:11;;;;;;;8.77;6.38;;;3.50;99.90;;;;;;5068148;28;20029;-92
2020/12/28 08:12:40;;;;;;;13.10;6.45;;;3.60;99.90;;;;;;5063361;28;20020;-92
2020/12/28 08:15:07;;;;;;;13.35;6.43;;;3.50;99.90;;;;;;5085052;28;20497;-91
2020/12/28 08:17:32;;;;;;;8.80;6.55;;;3.50;99.90;;;;;;5068250;28;20047;-92
2020/12/28 08:20:13;;;;;;;10.30;6.38;;;3.60;99.90;;;;;;5069540;28;20506;-93
2020/12/28 08:22:40;;;;;;;10.23;6.47;;;3.60;99.90;;;;;;5066235;28;20028;-93
2020/12/28 08:25:07;;;;;;;10.52;6.07;;;3.60;99.90;;;;;;5071229;28;20024;-92
2020/12/28 08:27:33;;;;;;;11.55;6.40;;;3.60;99.90;;;;;;5066157;28;20430;-92
2020/12/28 08:30:00;;;;;;;10.32;5.78;;;3.60;99.90;;;;;;5063696;28;20032;-92
2020/12/28 08:32:27;;;;;;;8.18;6.15;;;3.50;99.90;;;;;;5065902;28;20020;-92
2020/12/28 08:34:55;;;;;;;11.02;6.70;;;3.50;99.90;;;;;;5071970;28;20027;-92
2020/12/28 08:37:27;;;;;;;9.60;6.25;;;3.50;99.90;;;;;;5076519;28;20093;-93
2020/12/28 08:39:53;;;;;;;9.10;6.22;;;3.60;99.90;;;;;;5070517;28;20472;-92
2020/12/28 08:42:27;;;;;;;10.23;6.40;;;3.60;99.90;;;;;;5065592;28;20036;-93
2020/12/28 08:44:53;;;;;;;7.70;5.85;;;3.60;99.90;;;;;;5068290;28;20021;-92
2020/12/28 08:47:18;;;;;;;9.63;5.97;;;3.60;99.90;;;;;;5066410;28;20028;-92
2020/12/28 08:49:47;;;;;;;10.48;6.07;;;3.50;99.90;;;;;;5066184;28;20495;-92
2020/12/28 08:52:15;;;;;;;12.40;6.72;;;3.50;99.90;;;;;;5074605;28;20131;-92
2020/12/28 08:54:41;;;;;;;10.57;6.80;;;3.50;99.90;;;;;;5056862;28;20461;-91
2020/12/28 08:57:21;;;;;;;10.90;6.43;;;3.50;99.90;;;;;;5074369;28;20086;-92
2020/12/28 08:59:46;;;;;;;10.45;6.97;;;3.60;99.90;;;;;;5065876;28;20479;-92
2020/12/28 09:02:19;;;;;;;10.73;7.25;;;3.60;99.90;;;;;;5058674;28;20078;-92
2020/12/28 09:04:45;;;;;;;10.77;7.60;;;3.60;99.90;;;;;;5071904;28;20013;-93
2020/12/28 09:07:11;;;;;;;12.73;7.18;;;3.60;99.90;;;;;;5091752;22;20060;-88
2020/12/28 09:09:41;;;;;;;11.48;7.40;;;3.60;99.90;;;;;;5052863;28;20021;-88
2020/12/28 09:12:07;;;;;;;11.93;7.43;;;3.70;99.90;;;;;;5052401;28;20021;-88
2020/12/28 09:14:33;;;;;;;11.07;7.85;;;3.70;99.90;;;;;;5052574;28;20032;-88
2020/12/28 09:16:58;;;;;;;10.38;7.70;;;3.70;99.90;;;;;;5052327;28;20029;-88
2020/12/28 09:19:24;;;;;;;10.48;7.00;;;3.70;99.90;;;;;;5052380;28;20045;-88
2020/12/28 09:21:52;;;;;;;11.45;8.45;;;3.70;99.90;;;;;;5052238;28;20552;-88
2020/12/28 09:24:17;;;;;;;10.52;8.20;;;3.70;99.90;;;;;;5051044;28;20021;-88
2020/12/28 09:26:43;;;;;;;11.43;7.68;;;3.80;99.90;;;;;;5051619;28;20032;-89
2020/12/28 09:29:08;;;;;;;11.90;7.68;;;3.80;99.90;;;;;;5052284;28;20480;-88
2020/12/28 09:31:34;;;;;;;12.25;8.27;;;3.80;99.90;;;;;;5052362;28;20025;-88
2020/12/28 09:33:59;;;;;;;11.77;7.53;;;3.80;99.90;;;;;;5052762;28;20043;-88
2020/12/28 09:36:25;;;;;;;12.95;8.00;;;3.90;99.90;;;;;;5052891;28;20033;-88
2020/12/28 09:38:50;;;;;;;11.93;7.90;;;3.80;99.90;;;;;;5037368;28;20032;-88
2020/12/28 09:41:16;;;;;;;12.88;7.10;;;3.80;99.90;;;;;;5031867;28;20030;-87
2020/12/28 09:43:42;;;;;;;9.65;6.43;;;3.80;99.90;;;;;;5032500;28;20493;-88
2020/12/28 09:46:09;;;;;;;8.75;6.47;;;3.80;99.90;;;;;;5032404;28;20527;-88
2020/12/28 09:48:34;;;;;;;10.75;6.70;;;3.80;99.90;;;;;;5032312;28;20461;-87
2020/12/28 09:51:02;;;;;;;11.20;5.93;;;3.70;99.90;;;;;;5040845;28;20025;-88
2020/12/28 09:53:27;;;;;;;8.70;5.55;;;3.80;99.90;;;;;;5047992;28;20105;-88
2020/12/28 09:55:53;;;;;;;7.28;6.18;;;3.80;99.90;;;;;;5031493;28;20116;-86
2020/12/28 09:58:18;;;;;;;10.32;6.32;;;3.80;99.90;;;;;;5032552;28;20083;-86
2020/12/28 10:00:44;;;;;;;7.03;5.63;;;3.80;99.90;;;;;;5031487;28;20013;-86
2020/12/28 10:03:09;;;;;;;7.47;5.18;;;3.90;99.90;;;;;;5031344;28;20046;-86
2020/12/28 10:05:35;;;;;;;8.95;5.13;;;4.00;99.90;;;;;;5047305;28;20472;-86
2020/12/28 10:08:01;;;;;;;8.85;5.38;;;4.10;99.90;;;;;;5062942;28;20051;-86
2020/12/28 10:10:26;;;;;;;7.57;4.93;;;4.10;99.90;;;;;;5051714;28;20107;-86
2020/12/28 10:12:52;;;;;;;5.65;3.80;;;4.10;99.90;;;;;;5054988;28;20025;-86
2020/12/28 10:15:18;;;;;;;7.80;4.18;;;4.20;99.90;;;;;;5058237;28;20032;-86
2020/12/28 10:18:11;;;;;;;6.72;3.88;;;4.20;99.90;;;;;;5072587;28;20021;-86
2020/12/28 10:20:36;;;;;;;5.63;2.78;;;4.30;99.90;;;;;;5060263;28;20025;-86
2020/12/28 10:23:02;;;;;;;7.22;3.03;;;4.30;99.90;;;;;;5052238;28;20023;-86
2020/12/28 10:25:27;;;;;;;6.88;3.58;;;4.40;99.90;;;;;;5041218;28;20051;-86
2020/12/28 10:27:53;;;;;;;13.27;3.70;;;4.40;99.90;;;;;;5063031;28;20021;-86
2020/12/28 10:30:19;;;;;;;5.75;2.70;;;4.50;99.90;;;;;;5043436;28;20021;-85
2020/12/28 10:32:44;;;;;;;5.80;2.70;;;4.60;99.90;;;;;;5061763;28;20492;-86
2020/12/28 10:35:11;;;;;;;4.53;2.70;;;4.90;99.90;;;;;;5060484;28;20053;-86
2020/12/28 10:37:36;;;;;;;5.68;2.55;;;5.30;99.90;;;;;;5062955;28;20052;-86
2020/12/28 10:40:03;;;;;;;4.38;2.25;;;5.50;99.90;;;;;;5044767;28;20480;-86
2020/12/28 10:42:28;;;;;;;5.18;2.97;;;5.50;99.90;;;;;;5042263;28;21124;-86
2020/12/28 10:44:54;;;;;;;6.32;3.17;;;5.80;99.90;;;;;;5039602;28;20028;-86
2020/12/28 10:47:19;;;;;;;2.95;2.05;;;5.80;99.90;;;;;;5039131;28;20017;-86
2020/12/28 10:49:45;;;;;;;5.72;2.40;;;5.80;99.90;;;;;;5053560;28;20389;-86
2020/12/28 10:52:10;;;;;;;3.88;2.03;;;5.90;99.90;;;;;;5037583;28;20025;-86
2020/12/28 10:54:36;;;;;;;3.97;1.98;;;5.80;99.90;;;;;;5039583;28;20161;-86
2020/12/28 10:57:01;;;;;;;5.45;1.98;;;5.80;99.90;;;;;;5039111;28;20387;-86
2020/12/28 10:59:27;;;;;;;4.63;1.90;;;5.80;99.90;;;;;;5045728;28;20028;-86
2020/12/28 11:01:56;;;;;;;3.13;1.33;;;5.70;99.90;;;;;;5053300;28;20024;-86
2020/12/28 11:04:21;;;;;;;3.15;1.67;;;5.70;99.90;;;;;;5040516;28;20041;-86
2020/12/28 11:06:47;;;;;;;3.55;1.85;;;5.80;99.90;;;;;;5043360;28;20478;-86
2020/12/28 11:09:12;;;;;;;4.07;1.58;;;5.80;99.90;;;;;;5042329;28;20027;-86
2020/12/28 11:11:37;;;;;;;4.47;1.98;;;5.90;99.90;;;;;;5057115;28;20104;-86
2020/12/28 11:14:03;;;;;;;5.47;1.73;;;5.90;99.90;;;;;;5041508;28;20025;-86
2020/12/28 11:16:28;;;;;;;3.97;1.80;;;5.80;99.90;;;;;;5039917;28;20473;-86
2020/12/28 11:18:55;;;;;;;5.70;1.73;;;5.60;99.90;;;;;;5050176;28;20025;-86
2020/12/28 11:21:20;;;;;;;4.45;1.63;;;5.50;99.90;;;;;;5059130;28;20096;-86
2020/12/28 11:24:01;;;;;;;6.65;1.70;;;5.40;99.90;;;;;;5050457;28;20639;-86
2020/12/28 11:26:34;;;;;;;5.88;1.73;;;5.30;99.90;;;;;;5056922;28;20020;-87
2020/12/28 11:29:02;;;;;;;2.75;1.55;;;5.30;99.90;;;;;;5039151;28;20104;-87
2020/12/28 11:31:28;;;;;;;3.38;1.60;;;5.20;99.90;;;;;;5044110;28;20548;-87
2020/12/28 11:33:53;;;;;;;4.57;1.15;;;5.20;99.90;;;;;;5056089;28;20059;-86
2020/12/28 11:36:19;;;;;;;4.13;1.75;;;5.20;99.90;;;;;;5069957;28;20024;-86
2020/12/28 11:38:46;;;;;;;2.92;1.23;;;5.30;99.90;;;;;;5067664;28;20473;-86
2020/12/28 11:41:13;;;;;;;4.07;1.58;;;5.30;99.90;;;;;;5035729;28;20017;-85
2020/12/28 11:43:38;;;;;;;5.95;1.67;;;5.30;99.90;;;;;;5041313;28;20047;-87
2020/12/28 11:46:07;;;;;;;3.13;1.60;;;5.30;99.90;;;;;;5054817;28;20040;-86
2020/12/28 11:48:33;;;;;;;3.72;2.40;;;5.30;99.90;;;;;;5038163;28;20686;-86
2020/12/28 11:50:59;;;;;;;2.97;1.65;;;5.30;99.90;;;;;;5040153;28;20035;-87
2020/12/28 11:53:25;;;;;;;3.22;1.70;;;5.30;99.90;;;;;;5050743;28;20066;-88
2020/12/28 11:56:03;;;;;;;4.72;2.22;;;5.30;99.90;;;;;;5050248;28;20025;-87
2020/12/28 11:58:34;;;;;;;3.10;1.63;;;5.40;99.90;;;;;;5056781;28;20028;-87
2020/12/28 12:01:00;;;;;;;2.55;1.65;;;5.40;99.90;;;;;;5046893;28;20116;-87
2020/12/28 12:03:28;;;;;;;3.53;1.50;;;5.40;99.90;;;;;;5055943;28;20537;-89
2020/12/28 12:05:55;;;;;;;5.80;1.52;;;5.40;99.90;;;;;;5056107;28;20078;-88
2020/12/28 12:08:20;;;;;;;6.30;2.28;;;5.50;99.90;;;;;;5056241;28;20072;-87
2020/12/28 12:10:46;;;;;;;4.18;1.63;;;5.50;99.90;;;;;;5045999;28;20441;-87
2020/12/28 12:13:11;;;;;;;2.30;1.60;;;5.50;99.90;;;;;;5054393;28;20024;-87
2020/12/28 12:15:47;;;;;;;3.47;1.25;;;5.60;99.90;;;;;;5063534;28;20365;-87
2020/12/28 12:18:13;;;;;;;5.70;1.65;;;5.60;99.90;;;;;;5055686;28;20029;-86
2020/12/28 12:20:39;;;;;;;4.45;1.40;;;5.60;99.90;;;;;;5038030;28;20029;-86
2020/12/28 12:23:05;;;;;;;6.22;1.90;;;5.70;99.90;;;;;;5038683;28;20052;-85
2020/12/28 12:25:31;;;;;;;3.38;1.35;;;5.70;99.90;;;;;;5043232;28;20055;-85
2020/12/28 12:27:57;;;;;;;3.22;1.80;;;5.60;99.90;;;;;;5043219;28;20047;-86
2020/12/28 12:30:23;;;;;;;3.97;1.80;;;5.70;99.90;;;;;;5036413;28;20476;-85
2020/12/28 12:32:49;;;;;;;4.55;1.65;;;5.70;99.90;;;;;;5037569;28;20488;-86
2020/12/28 12:35:14;;;;;;;3.45;1.42;;;5.80;99.90;;;;;;5041796;28;20056;-86
2020/12/28 12:37:40;;;;;;;5.75;2.10;;;5.80;99.90;;;;;;5035296;28;20481;-86
2020/12/28 12:40:06;;;;;;;4.68;1.73;;;6.00;99.90;;;;;;5037747;28;20091;-85
2020/12/28 12:42:31;;;;;;;3.47;1.50;;;6.00;99.80;;;;;;5037304;28;20468;-86
2020/12/28 12:44:57;;;;;;;4.85;1.67;;;6.10;99.70;;;;;;5044821;28;20017;-86
2020/12/28 12:47:22;;;;;;;6.53;2.17;;;6.20;99.80;;;;;;5039984;28;20048;-84